Time;durP1;ratioP1;P1;durP2;ratioP2;P2;SDS_P1;SDS_P2;PMS_P1;PMS_P2;Temp;Humidity;BMP_temperature;BMP_pressure;BME280_temperature;BME280_humidity;BME280_pressure;Samples;Min_cycle;Max_cycle;Signal;HPM_P1;HPM_P2
2023/07/20 00:01:46;;;;;;;2.55;1.90;;;16.30;99.90;;;;;;5147822;27;20050;-76
2023/07/20 00:04:14;;;;;;;2.42;2.05;;;16.30;99.90;;;;;;5128718;27;20031;-76
2023/07/20 00:06:42;;;;;;;3.97;2.40;;;16.30;99.90;;;;;;5146893;27;20049;-76
2023/07/20 00:09:08;;;;;;;3.80;2.33;;;16.20;99.90;;;;;;5149384;27;20168;-75
2023/07/20 00:11:40;;;;;;;3.20;2.22;;;16.20;99.90;;;;;;5151655;27;20579;-75
2023/07/20 00:14:06;;;;;;;3.72;2.55;;;16.20;99.90;;;;;;5151077;27;20035;-76
2023/07/20 00:16:32;;;;;;;4.03;2.35;;;16.20;99.90;;;;;;5149072;27;20039;-76
2023/07/20 00:18:57;;;;;;;2.67;2.40;;;16.20;99.90;;;;;;5129877;27;20409;-76
2023/07/20 00:21:23;;;;;;;4.22;2.90;;;16.20;99.90;;;;;;5131577;27;20039;-76
2023/07/20 00:23:48;;;;;;;3.47;2.67;;;16.20;99.90;;;;;;5131500;27;20472;-76
2023/07/20 00:26:14;;;;;;;3.97;2.80;;;16.20;99.90;;;;;;5149566;27;20118;-76
2023/07/20 00:28:39;;;;;;;3.53;3.00;;;16.10;99.90;;;;;;5141194;27;20043;-76
2023/07/20 00:31:05;;;;;;;4.07;2.65;;;16.00;99.90;;;;;;5147993;27;20034;-76
2023/07/20 00:33:30;;;;;;;3.13;2.83;;;16.00;99.90;;;;;;5147988;27;20080;-76
2023/07/20 00:35:56;;;;;;;3.97;2.92;;;15.90;99.90;;;;;;5142706;27;20124;-76
2023/07/20 00:38:22;;;;;;;7.07;2.80;;;15.80;99.90;;;;;;5139356;27;20114;-76
2023/07/20 00:40:49;;;;;;;3.70;2.85;;;15.80;99.90;;;;;;5126042;27;20030;-76
2023/07/20 00:43:15;;;;;;;3.30;2.70;;;15.70;99.90;;;;;;5139757;27;20109;-75
2023/07/20 00:45:41;;;;;;;5.20;2.45;;;15.60;99.90;;;;;;5145452;27;20078;-75
2023/07/20 00:48:07;;;;;;;4.63;2.75;;;15.60;99.90;;;;;;5145991;27;20486;-76
2023/07/20 00:50:33;;;;;;;3.00;2.40;;;15.50;99.90;;;;;;5142565;27;20036;-75
2023/07/20 00:52:59;;;;;;;4.13;2.47;;;15.50;99.90;;;;;;5147746;27;20114;-75
2023/07/20 00:55:26;;;;;;;3.22;2.47;;;15.40;99.90;;;;;;5121915;27;20071;-76
2023/07/20 00:57:52;;;;;;;4.05;2.67;;;15.40;99.90;;;;;;5144466;27;20049;-76
2023/07/20 01:00:18;;;;;;;3.70;2.50;;;15.30;99.90;;;;;;5146629;27;20485;-75
2023/07/20 01:02:44;;;;;;;2.90;2.30;;;15.20;99.90;;;;;;5143287;27;20035;-75
2023/07/20 01:05:12;;;;;;;3.03;2.40;;;15.20;99.90;;;;;;5135953;27;20080;-76
2023/07/20 01:08:11;;;;;;;3.17;2.45;;;15.20;99.90;;;;;;5139693;27;20092;-76
2023/07/20 01:10:43;;;;;;;3.78;2.60;;;15.20;99.90;;;;;;5121840;27;20046;-76
2023/07/20 01:13:10;;;;;;;4.43;2.50;;;15.20;99.90;;;;;;5140334;27;20065;-76
2023/07/20 01:15:36;;;;;;;3.13;2.70;;;15.20;99.90;;;;;;5143311;27;20077;-76
2023/07/20 01:18:04;;;;;;;3.50;2.60;;;15.20;99.90;;;;;;5139449;27;20035;-76
2023/07/20 01:20:32;;;;;;;3.45;2.45;;;15.20;99.90;;;;;;5150233;27;20046;-76
2023/07/20 01:23:16;;;;;;;3.75;2.60;;;15.20;99.90;;;;;;5144133;27;20043;-75
2023/07/20 01:26:11;;;;;;;3.58;2.50;;;15.20;99.90;;;;;;5140557;27;20042;-75
2023/07/20 01:29:21;;;;;;;3.38;2.33;;;15.20;99.90;;;;;;5146387;27;20114;-75
2023/07/20 01:31:51;;;;;;;3.40;2.70;;;15.10;99.90;;;;;;5088177;27;20099;-76
2023/07/20 01:34:18;;;;;;;3.03;2.65;;;15.10;99.90;;;;;;5140764;27;20089;-75
2023/07/20 01:36:45;;;;;;;3.00;2.67;;;15.00;99.90;;;;;;5129855;27;20038;-76
2023/07/20 01:39:11;;;;;;;5.05;2.55;;;15.00;99.90;;;;;;5143271;27;20034;-76
2023/07/20 01:41:37;;;;;;;4.18;2.40;;;14.90;99.90;;;;;;5143117;27;20038;-76
2023/07/20 01:44:04;;;;;;;3.08;2.78;;;14.90;99.90;;;;;;5144178;27;20569;-76
2023/07/20 01:46:29;;;;;;;4.25;2.67;;;14.80;99.90;;;;;;5144248;27;20042;-76
2023/07/20 01:48:55;;;;;;;5.15;3.00;;;14.80;99.90;;;;;;5143727;27;20172;-76
2023/07/20 01:51:21;;;;;;;5.53;2.80;;;14.70;99.90;;;;;;5150863;27;20039;-76
2023/07/20 01:53:46;;;;;;;3.10;2.60;;;14.70;99.90;;;;;;5148357;27;20043;-76
2023/07/20 01:56:12;;;;;;;3.17;2.40;;;14.60;99.90;;;;;;5143316;27;20075;-76
2023/07/20 01:58:38;;;;;;;2.92;2.58;;;14.60;99.90;;;;;;5146564;27;20065;-75
2023/07/20 02:01:04;;;;;;;3.40;2.65;;;14.60;99.90;;;;;;5137426;27;20072;-75
2023/07/20 02:03:29;;;;;;;5.30;2.75;;;14.50;99.90;;;;;;5141109;27;20039;-75
2023/07/20 02:05:56;;;;;;;3.22;2.60;;;14.50;99.90;;;;;;5144273;27;20568;-75
2023/07/20 02:08:22;;;;;;;3.55;2.88;;;14.40;99.90;;;;;;5150424;27;20039;-76
2023/07/20 02:10:48;;;;;;;5.20;2.88;;;14.40;99.90;;;;;;5123725;27;20545;-75
2023/07/20 02:13:14;;;;;;;3.33;3.03;;;14.40;99.90;;;;;;5141141;27;20027;-76
2023/07/20 02:15:41;;;;;;;3.67;2.90;;;14.30;99.90;;;;;;5138738;27;20035;-76
2023/07/20 02:18:06;;;;;;;2.85;2.40;;;14.30;99.90;;;;;;5149841;27;20122;-76
2023/07/20 02:20:32;;;;;;;3.38;2.92;;;14.20;99.90;;;;;;5144207;27;20150;-76
2023/07/20 02:22:57;;;;;;;4.18;3.40;;;14.20;99.90;;;;;;5139031;27;20041;-75
2023/07/20 02:25:23;;;;;;;3.17;2.88;;;14.20;99.90;;;;;;5145038;27;20046;-75
2023/07/20 02:27:48;;;;;;;5.72;3.17;;;14.20;99.90;;;;;;5144881;27;20099;-76
2023/07/20 02:30:15;;;;;;;3.50;3.20;;;14.10;99.90;;;;;;5128284;27;20122;-76
2023/07/20 02:32:45;;;;;;;3.60;2.80;;;14.10;99.90;;;;;;5127738;27;20080;-76
2023/07/20 02:35:11;;;;;;;3.67;2.95;;;14.10;99.90;;;;;;5149565;27;20501;-75
2023/07/20 02:37:37;;;;;;;4.07;2.80;;;14.10;99.90;;;;;;5140438;27;20039;-75
2023/07/20 02:40:04;;;;;;;3.35;3.00;;;14.00;99.90;;;;;;5145221;27;20092;-75
2023/07/20 02:42:29;;;;;;;3.45;3.00;;;13.90;99.90;;;;;;5149674;27;20437;-75
2023/07/20 02:44:55;;;;;;;5.15;2.92;;;14.00;99.90;;;;;;5138430;27;20040;-75
2023/07/20 02:47:20;;;;;;;3.05;2.63;;;13.90;99.90;;;;;;5145866;27;20026;-75
2023/07/20 02:49:46;;;;;;;2.75;2.42;;;13.80;99.90;;;;;;5143026;27;20156;-76
2023/07/20 02:52:12;;;;;;;3.00;2.35;;;13.80;99.90;;;;;;5147296;27;20067;-76
2023/07/20 02:54:37;;;;;;;2.25;1.90;;;13.80;99.90;;;;;;5128400;27;20091;-75
2023/07/20 02:57:03;;;;;;;2.35;2.00;;;13.70;99.90;;;;;;5139296;27;20034;-75
2023/07/20 02:59:29;;;;;;;2.92;2.63;;;13.60;99.90;;;;;;5146363;27;20077;-75
2023/07/20 03:01:55;;;;;;;3.95;2.58;;;13.60;99.90;;;;;;5144006;27;20091;-75
2023/07/20 03:04:21;;;;;;;2.80;2.38;;;13.60;99.90;;;;;;5142541;27;20046;-75
2023/07/20 03:06:47;;;;;;;3.33;2.88;;;13.60;99.90;;;;;;5144837;27;20386;-76
2023/07/20 03:09:12;;;;;;;4.03;2.50;;;13.50;99.90;;;;;;5147108;27;20074;-75
2023/07/20 03:11:38;;;;;;;3.63;2.25;;;13.60;99.90;;;;;;5147153;27;20095;-76
2023/07/20 03:14:04;;;;;;;6.72;2.63;;;13.50;99.90;;;;;;5139446;27;20053;-76
2023/07/20 03:16:32;;;;;;;2.83;2.10;;;13.50;99.90;;;;;;5143587;27;20493;-76
2023/07/20 03:18:58;;;;;;;2.65;2.22;;;13.50;99.90;;;;;;5147549;27;20049;-76
2023/07/20 03:21:24;;;;;;;4.03;2.92;;;13.40;99.90;;;;;;5152047;27;20030;-76
2023/07/20 03:23:49;;;;;;;4.03;2.80;;;13.40;99.90;;;;;;5145005;27;20039;-76
2023/07/20 03:26:15;;;;;;;2.97;2.55;;;13.40;99.90;;;;;;5150229;27;20039;-76
2023/07/20 03:28:40;;;;;;;2.83;2.40;;;13.40;99.90;;;;;;5144061;27;20038;-76
2023/07/20 03:31:06;;;;;;;2.50;2.30;;;13.40;99.90;;;;;;5147283;27;20573;-76
2023/07/20 03:33:32;;;;;;;2.60;2.08;;;13.30;99.90;;;;;;5146111;27;20026;-76
2023/07/20 03:35:58;;;;;;;2.22;2.03;;;13.30;99.90;;;;;;5142993;27;20046;-76
2023/07/20 03:38:24;;;;;;;3.88;2.00;;;13.20;99.90;;;;;;5142953;27;20520;-76
2023/07/20 03:40:51;;;;;;;2.78;2.25;;;13.10;99.90;;;;;;5147683;27;20045;-75
2023/07/20 03:43:16;;;;;;;3.03;2.08;;;13.20;99.90;;;;;;5140121;27;20046;-75
2023/07/20 03:45:42;;;;;;;3.05;2.45;;;13.10;99.90;;;;;;5141279;27;20057;-76
2023/07/20 03:48:07;;;;;;;2.83;2.22;;;13.10;99.90;;;;;;5145205;27;20409;-76
2023/07/20 03:50:33;;;;;;;3.22;2.50;;;13.10;99.90;;;;;;5140892;27;20034;-76
2023/07/20 03:52:59;;;;;;;3.13;2.60;;;13.10;99.90;;;;;;5146502;27;20034;-76
2023/07/20 03:55:24;;;;;;;4.10;2.80;;;13.10;99.90;;;;;;5149633;27;20513;-76
2023/07/20 03:57:50;;;;;;;2.67;2.45;;;13.20;99.90;;;;;;5143997;27;20114;-76
2023/07/20 04:00:17;;;;;;;4.72;2.90;;;13.20;99.90;;;;;;5143376;27;20039;-76
2023/07/20 04:02:42;;;;;;;3.33;2.90;;;13.20;99.90;;;;;;5138660;27;20043;-76
2023/07/20 04:05:08;;;;;;;3.05;2.75;;;13.20;99.90;;;;;;5141100;27;20046;-76
2023/07/20 04:07:34;;;;;;;2.95;2.65;;;13.20;99.90;;;;;;5148746;27;20404;-79
2023/07/20 04:09:59;;;;;;;5.18;2.85;;;13.20;99.90;;;;;;5145740;27;20080;-79
2023/07/20 04:12:25;;;;;;;3.25;2.33;;;13.20;99.90;;;;;;5149557;27;20047;-79
2023/07/20 04:14:50;;;;;;;3.15;2.63;;;13.20;99.90;;;;;;5138274;27;20405;-79
2023/07/20 04:17:16;;;;;;;4.05;3.15;;;13.20;99.90;;;;;;5132951;27;20573;-79
2023/07/20 04:19:42;;;;;;;2.65;2.45;;;13.20;99.90;;;;;;5142343;27;20046;-78
2023/07/20 04:22:08;;;;;;;5.63;3.10;;;13.20;99.90;;;;;;5148103;27;20060;-79
2023/07/20 04:24:33;;;;;;;3.42;2.58;;;13.20;99.90;;;;;;5143163;27;20038;-79
2023/07/20 04:26:59;;;;;;;3.55;2.75;;;13.20;99.90;;;;;;5137954;27;20473;-79
2023/07/20 04:29:24;;;;;;;3.17;2.60;;;13.20;99.90;;;;;;5131274;27;20550;-79
2023/07/20 04:31:50;;;;;;;4.18;2.55;;;13.20;99.90;;;;;;5137609;27;20122;-79
2023/07/20 04:34:15;;;;;;;5.75;2.95;;;13.20;99.90;;;;;;5143598;27;20027;-79
2023/07/20 04:36:41;;;;;;;4.18;2.65;;;13.20;99.90;;;;;;5143490;27;20160;-79
2023/07/20 04:39:08;;;;;;;4.60;2.95;;;13.20;99.90;;;;;;5144898;27;20135;-79
2023/07/20 04:41:34;;;;;;;4.20;2.85;;;13.20;99.90;;;;;;5144443;27;20409;-79
2023/07/20 04:43:59;;;;;;;3.10;2.50;;;13.20;99.90;;;;;;5129807;27;20039;-78
2023/07/20 04:46:25;;;;;;;3.92;3.10;;;13.20;99.90;;;;;;5136576;27;20043;-79
2023/07/20 04:48:50;;;;;;;3.50;2.60;;;13.20;99.90;;;;;;5146333;27;20039;-79
2023/07/20 04:51:20;;;;;;;4.22;2.50;;;13.30;99.90;;;;;;5151530;27;20061;-79
2023/07/20 04:53:45;;;;;;;3.83;2.92;;;13.40;99.90;;;;;;5152607;27;20446;-78
2023/07/20 04:56:11;;;;;;;3.05;2.58;;;13.50;99.90;;;;;;5145078;27;20052;-78
2023/07/20 04:58:36;;;;;;;4.63;2.50;;;13.60;99.90;;;;;;5143761;27;20039;-78
2023/07/20 05:01:02;;;;;;;2.80;2.50;;;13.70;99.90;;;;;;5143220;27;20039;-79
2023/07/20 05:03:27;;;;;;;4.88;2.70;;;13.90;99.90;;;;;;5146094;27;20521;-79
2023/07/20 05:05:54;;;;;;;3.28;2.17;;;14.00;99.90;;;;;;5145633;27;20035;-79
2023/07/20 05:08:19;;;;;;;4.28;2.60;;;14.00;99.90;;;;;;5150979;27;20038;-78
2023/07/20 05:10:45;;;;;;;5.32;2.47;;;14.10;99.90;;;;;;5130144;27;20079;-78
2023/07/20 05:13:10;;;;;;;3.10;2.35;;;14.10;99.90;;;;;;5162594;27;20159;-78
2023/07/20 05:15:36;;;;;;;3.42;2.20;;;14.20;99.90;;;;;;5149793;27;20034;-79
2023/07/20 05:18:01;;;;;;;4.05;2.22;;;14.20;99.90;;;;;;5147499;27;20053;-79
2023/07/20 05:20:27;;;;;;;3.38;2.05;;;14.30;99.90;;;;;;5122679;27;20072;-79
2023/07/20 05:22:52;;;;;;;5.40;2.38;;;14.40;99.90;;;;;;5150336;27;20030;-78
2023/07/20 05:25:18;;;;;;;3.55;2.30;;;14.40;99.90;;;;;;5152274;27;20109;-79
2023/07/20 05:27:45;;;;;;;2.85;2.25;;;14.40;99.90;;;;;;5153642;27;20111;-79
2023/07/20 05:30:11;;;;;;;2.85;2.40;;;14.50;99.90;;;;;;5140282;27;20039;-78
2023/07/20 05:32:37;;;;;;;4.15;2.58;;;14.60;99.90;;;;;;5141056;27;20076;-78
2023/07/20 05:35:03;;;;;;;3.50;2.50;;;14.70;99.90;;;;;;5140716;27;20182;-78
2023/07/20 05:37:28;;;;;;;4.55;2.17;;;14.70;99.90;;;;;;5142235;27;22368;-78
2023/07/20 05:39:54;;;;;;;4.57;2.20;;;14.80;99.90;;;;;;5146861;27;20416;-77
2023/07/20 05:42:19;;;;;;;2.97;2.30;;;14.80;99.90;;;;;;5148595;27;20464;-78
2023/07/20 05:44:47;;;;;;;5.13;2.08;;;14.80;99.90;;;;;;5146764;27;20039;-78
2023/07/20 05:47:12;;;;;;;3.80;2.35;;;14.80;99.90;;;;;;5145792;27;20489;-78
2023/07/20 05:49:38;;;;;;;3.13;2.25;;;14.90;99.90;;;;;;5135004;27;20064;-78
2023/07/20 05:52:03;;;;;;;2.72;2.00;;;15.00;99.90;;;;;;5146323;27;20064;-78
2023/07/20 05:54:29;;;;;;;4.43;2.03;;;15.10;99.90;;;;;;5145164;27;20031;-78
2023/07/20 05:56:55;;;;;;;4.47;2.15;;;15.20;99.90;;;;;;5144153;27;20062;-78
2023/07/20 05:59:20;;;;;;;4.30;2.00;;;15.30;99.90;;;;;;5144635;27;20042;-78
2023/07/20 06:01:48;;;;;;;4.22;2.05;;;15.40;99.90;;;;;;5137801;27;20031;-78
2023/07/20 06:04:14;;;;;;;3.58;1.90;;;15.50;99.90;;;;;;5136069;27;20039;-78
2023/07/20 06:06:40;;;;;;;4.20;1.80;;;15.60;99.90;;;;;;5138428;27;20043;-77
2023/07/20 06:09:09;;;;;;;4.07;2.38;;;15.70;99.90;;;;;;5149619;27;20501;-78
2023/07/20 06:11:35;;;;;;;5.75;1.83;;;15.80;99.90;;;;;;5142833;27;20051;-78
2023/07/20 06:14:00;;;;;;;2.90;1.90;;;15.90;99.90;;;;;;5138540;27;20037;-78
2023/07/20 06:16:26;;;;;;;6.38;1.90;;;16.00;99.90;;;;;;5136519;27;20050;-78
2023/07/20 06:18:51;;;;;;;5.35;2.00;;;16.10;99.90;;;;;;5143622;27;20431;-77
2023/07/20 06:21:17;;;;;;;3.53;1.77;;;16.10;99.90;;;;;;5128268;27;20066;-77
2023/07/20 06:23:42;;;;;;;3.95;1.90;;;16.20;99.90;;;;;;5143371;27;20043;-77
2023/07/20 06:26:08;;;;;;;2.55;1.60;;;16.20;99.90;;;;;;5144730;27;20112;-77
2023/07/20 06:28:34;;;;;;;3.55;1.42;;;16.40;99.90;;;;;;5138061;27;20054;-76
2023/07/20 06:31:03;;;;;;;4.18;1.45;;;16.30;99.90;;;;;;5151108;27;20031;-77
2023/07/20 06:33:29;;;;;;;3.92;1.33;;;16.30;99.90;;;;;;5152402;27;20087;-76
2023/07/20 06:35:56;;;;;;;3.85;1.30;;;16.40;99.90;;;;;;5151492;27;20039;-77
2023/07/20 06:38:23;;;;;;;4.75;1.30;;;16.40;99.90;;;;;;5148730;27;20050;-76
2023/07/20 06:40:49;;;;;;;2.83;1.30;;;16.50;99.90;;;;;;5153745;27;20504;-76
2023/07/20 06:43:16;;;;;;;4.47;1.55;;;16.70;99.90;;;;;;5150888;27;20129;-77
2023/07/20 06:45:41;;;;;;;2.72;1.38;;;16.70;99.90;;;;;;5149844;27;20043;-76
2023/07/20 06:48:07;;;;;;;2.45;1.30;;;16.70;99.90;;;;;;5146887;27;20560;-76
2023/07/20 06:50:33;;;;;;;4.53;1.30;;;16.80;99.90;;;;;;5146938;27;20137;-77
2023/07/20 06:52:59;;;;;;;4.38;1.48;;;17.00;99.90;;;;;;5140771;27;20043;-76
2023/07/20 06:55:25;;;;;;;4.65;1.50;;;17.00;99.90;;;;;;5138659;27;20043;-76
2023/07/20 06:57:51;;;;;;;4.32;1.55;;;17.00;99.90;;;;;;5135018;27;20414;-77
2023/07/20 07:00:17;;;;;;;4.32;1.30;;;17.00;99.90;;;;;;5134943;27;20039;-76
2023/07/20 07:02:43;;;;;;;2.70;1.30;;;17.10;99.90;;;;;;5135564;27;20118;-77
2023/07/20 07:05:09;;;;;;;3.20;1.35;;;17.20;99.90;;;;;;5138621;27;20558;-76
2023/07/20 07:07:34;;;;;;;3.95;1.40;;;17.30;99.90;;;;;;5137712;27;20035;-76
2023/07/20 07:10:00;;;;;;;6.20;1.40;;;17.30;99.90;;;;;;5137932;27;20071;-75
2023/07/20 07:12:26;;;;;;;3.95;1.40;;;17.30;99.90;;;;;;5137259;27;20049;-76
2023/07/20 07:14:52;;;;;;;4.95;1.77;;;17.40;99.90;;;;;;5153713;27;20035;-75
2023/07/20 07:17:18;;;;;;;5.57;1.50;;;17.50;99.90;;;;;;5146090;27;20042;-75
2023/07/20 07:19:44;;;;;;;6.88;1.80;;;17.50;99.90;;;;;;5148861;27;20126;-76
2023/07/20 07:22:09;;;;;;;6.82;1.80;;;17.70;99.90;;;;;;5143921;27;20517;-75
2023/07/20 07:24:35;;;;;;;3.83;1.65;;;17.70;99.90;;;;;;5152525;27;20047;-75
2023/07/20 07:27:01;;;;;;;5.75;2.17;;;17.80;99.90;;;;;;5153836;27;20042;-76
2023/07/20 07:29:27;;;;;;;3.25;1.60;;;17.90;99.90;;;;;;5137575;27;20042;-76
2023/07/20 07:31:52;;;;;;;5.38;1.60;;;18.10;99.90;;;;;;5141530;27;20042;-76
2023/07/20 07:34:18;;;;;;;3.95;2.03;;;18.00;99.90;;;;;;5148421;27;20031;-77
2023/07/20 07:36:44;;;;;;;3.25;1.80;;;18.10;99.90;;;;;;5134772;27;20041;-75
2023/07/20 07:39:10;;;;;;;4.65;2.10;;;18.00;99.90;;;;;;5149171;27;20160;-76
2023/07/20 07:41:35;;;;;;;4.00;1.92;;;17.90;99.90;;;;;;5133268;27;20126;-75
2023/07/20 07:44:01;;;;;;;3.00;1.90;;;17.90;99.90;;;;;;5148958;27;20050;-76
2023/07/20 07:46:26;;;;;;;3.60;1.80;;;17.90;99.90;;;;;;5149428;27;20144;-76
2023/07/20 07:48:52;;;;;;;3.92;1.70;;;18.10;99.90;;;;;;5141936;27;20061;-76
2023/07/20 07:51:18;;;;;;;3.58;1.80;;;18.30;99.90;;;;;;5147968;27;20031;-76
2023/07/20 07:53:46;;;;;;;4.25;1.90;;;18.50;99.90;;;;;;5128964;27;20060;-76
2023/07/20 07:56:11;;;;;;;5.35;1.83;;;18.50;99.90;;;;;;5145930;27;20027;-76
2023/07/20 07:58:37;;;;;;;6.68;2.38;;;18.60;99.90;;;;;;5147080;27;20050;-75
2023/07/20 08:01:03;;;;;;;5.53;2.10;;;18.50;99.90;;;;;;5127475;27;20045;-75
2023/07/20 08:03:29;;;;;;;3.67;1.77;;;18.50;99.90;;;;;;5131901;27;20039;-75
2023/07/20 08:05:59;;;;;;;4.97;1.88;;;18.60;99.90;;;;;;5149492;27;20091;-76
2023/07/20 08:08:25;;;;;;;2.72;1.50;;;18.90;99.90;;;;;;5140793;27;20114;-75
2023/07/20 08:10:55;;;;;;;3.83;1.75;;;19.10;99.90;;;;;;5140289;27;20070;-75
2023/07/20 08:13:21;;;;;;;4.32;1.85;;;19.20;99.90;;;;;;5140456;27;20050;-76
2023/07/20 08:15:51;;;;;;;3.95;1.88;;;19.50;99.90;;;;;;5146378;27;20039;-75
2023/07/20 08:18:17;;;;;;;4.00;1.60;;;19.50;99.90;;;;;;5147827;27;20109;-76
2023/07/20 08:20:46;;;;;;;6.65;1.80;;;19.30;99.90;;;;;;5143094;27;20113;-76
2023/07/20 08:23:12;;;;;;;6.05;1.80;;;19.20;99.90;;;;;;5133118;27;20497;-74
2023/07/20 08:25:41;;;;;;;3.67;1.60;;;19.40;99.90;;;;;;5140614;27;20034;-76
2023/07/20 08:28:09;;;;;;;4.63;1.40;;;19.20;99.90;;;;;;5140315;27;20051;-75
2023/07/20 08:30:43;;;;;;;3.20;1.45;;;18.90;99.90;;;;;;5149523;27;20035;-76
2023/07/20 08:33:09;;;;;;;;;;;18.60;99.90;;;;;;5147749;27;20382;-77
2023/07/20 08:35:34;;;;;;;5.53;1.80;;;18.50;99.90;;;;;;5147185;27;20309;-76
2023/07/20 08:38:00;;;;;;;4.05;1.58;;;18.40;99.90;;;;;;5143287;27;20027;-76
2023/07/20 08:40:26;;;;;;;4.07;1.50;;;18.40;99.90;;;;;;5142891;27;20039;-76
2023/07/20 08:42:54;;;;;;;4.22;1.20;;;18.30;99.90;;;;;;5148131;27;20042;-75
2023/07/20 08:45:22;;;;;;;2.90;1.10;;;18.40;99.90;;;;;;5137967;27;20118;-75
2023/07/20 08:47:49;;;;;;;3.22;1.30;;;18.50;99.90;;;;;;5149730;27;20088;-76
2023/07/20 08:50:16;;;;;;;3.72;1.13;;;18.20;99.90;;;;;;5142954;27;20061;-77
2023/07/20 08:52:41;;;;;;;3.03;1.00;;;18.00;99.90;;;;;;5143481;27;20119;-76
2023/07/20 08:55:07;;;;;;;3.40;1.00;;;17.80;99.90;;;;;;5145357;27;20030;-77
2023/07/20 08:57:34;;;;;;;3.33;1.00;;;18.00;99.90;;;;;;5142672;27;20074;-76
2023/07/20 09:00:07;;;;;;;3.75;1.25;;;18.20;99.90;;;;;;5121416;27;20038;-75
2023/07/20 09:02:38;;;;;;;4.80;1.30;;;18.60;99.90;;;;;;5137163;27;20103;-76
2023/07/20 09:05:04;;;;;;;2.40;0.90;;;18.70;99.90;;;;;;5133041;27;20030;-76
2023/07/20 09:07:31;;;;;;;2.70;1.10;;;19.00;99.90;;;;;;5142819;27;20067;-76
2023/07/20 09:09:57;;;;;;;1.70;0.80;;;19.20;99.90;;;;;;5138240;27;20325;-77
2023/07/20 09:12:23;;;;;;;3.60;1.13;;;19.60;99.90;;;;;;5148063;27;20035;-76
2023/07/20 09:14:49;;;;;;;1.67;0.88;;;19.70;99.90;;;;;;5142045;27;20650;-76
2023/07/20 09:17:15;;;;;;;3.63;0.80;;;19.60;99.90;;;;;;5140792;27;20039;-76
2023/07/20 09:19:48;;;;;;;3.50;1.00;;;19.30;99.90;;;;;;5143248;27;20027;-77
2023/07/20 09:22:13;;;;;;;3.40;1.08;;;19.20;99.90;;;;;;5139500;27;20091;-77
2023/07/20 09:24:41;;;;;;;4.90;1.05;;;19.30;99.90;;;;;;5139462;27;20054;-77
2023/07/20 09:27:07;;;;;;;2.85;1.10;;;19.50;99.90;;;;;;5147440;27;20505;-77
2023/07/20 09:29:32;;;;;;;3.60;0.80;;;19.80;99.90;;;;;;5140763;27;20059;-76
2023/07/20 09:32:03;;;;;;;2.88;0.90;;;19.70;99.90;;;;;;5130836;27;20509;-77
2023/07/20 09:34:32;;;;;;;4.10;1.15;;;19.70;99.90;;;;;;5143488;27;20489;-77
2023/07/20 09:37:01;;;;;;;2.13;0.90;;;19.90;99.90;;;;;;5135439;27;20035;-77
2023/07/20 09:39:27;;;;;;;1.70;0.85;;;19.60;99.90;;;;;;5147130;27;20114;-76
2023/07/20 09:41:52;;;;;;;2.65;1.08;;;19.30;99.90;;;;;;5119402;28;20506;-76
2023/07/20 09:44:19;;;;;;;3.67;0.95;;;19.20;99.90;;;;;;5149851;27;20045;-76
2023/07/20 09:46:50;;;;;;;1.85;0.80;;;19.40;99.90;;;;;;5145698;27;20509;-77
2023/07/20 09:49:17;;;;;;;2.83;1.00;;;19.50;99.90;;;;;;5136248;27;20073;-78
2023/07/20 09:51:45;;;;;;;2.88;1.00;;;20.00;99.90;;;;;;5142797;27;20031;-77
2023/07/20 09:54:12;;;;;;;3.67;0.80;;;20.30;99.90;;;;;;5138617;27;20540;-77
2023/07/20 09:56:39;;;;;;;4.25;1.27;;;20.50;99.90;;;;;;5161677;27;20042;-76
2023/07/20 09:59:05;;;;;;;2.90;0.90;;;20.30;99.90;;;;;;5123244;27;20114;-78
2023/07/20 10:01:34;;;;;;;2.58;0.80;;;20.20;99.90;;;;;;5123238;27;20503;-79
2023/07/20 10:04:02;;;;;;;2.88;0.75;;;20.40;99.90;;;;;;5144658;27;20043;-80
2023/07/20 10:06:32;;;;;;;4.18;1.17;;;20.70;99.90;;;;;;5131140;28;20453;-77
2023/07/20 10:09:02;;;;;;;2.55;0.80;;;20.70;99.90;;;;;;5132584;27;20049;-79
2023/07/20 10:11:31;;;;;;;3.95;1.02;;;20.30;99.90;;;;;;5135635;27;20095;-78
2023/07/20 10:13:59;;;;;;;3.13;0.80;;;20.00;99.90;;;;;;5138406;27;20035;-77
2023/07/20 10:16:54;;;;;;;2.70;0.80;;;19.90;99.90;;;;;;5132579;27;20382;-78
2023/07/20 10:19:33;;;;;;;5.13;1.10;;;19.90;99.90;;;;;;5137895;27;20150;-78
2023/07/20 10:22:15;;;;;;;2.95;0.93;;;20.00;99.90;;;;;;5148062;27;20039;-79
2023/07/20 10:24:47;;;;;;;2.05;0.80;;;20.20;99.90;;;;;;5142956;27;20119;-79
2023/07/20 10:27:12;;;;;;;1.98;0.98;;;20.70;99.90;;;;;;5141361;27;20064;-79
2023/07/20 10:29:40;;;;;;;3.40;0.82;;;20.90;99.90;;;;;;5142444;27;20042;-79
2023/07/20 10:32:06;;;;;;;2.58;0.90;;;21.10;99.90;;;;;;5149448;27;20074;-78
2023/07/20 10:34:32;;;;;;;4.38;0.90;;;21.00;99.90;;;;;;5140153;27;20038;-77
2023/07/20 10:36:58;;;;;;;2.95;0.95;;;20.70;99.90;;;;;;5142394;27;20493;-78
2023/07/20 10:39:27;;;;;;;3.65;0.95;;;20.50;99.90;;;;;;5144493;27;20505;-78
2023/07/20 10:42:07;;;;;;;1.95;1.05;;;20.40;99.90;;;;;;5123810;27;20122;-78
2023/07/20 10:44:33;;;;;;;2.42;0.82;;;20.30;99.90;;;;;;5141589;27;20153;-78
2023/07/20 10:47:01;;;;;;;4.85;1.00;;;20.20;99.90;;;;;;5137199;27;20121;-79
2023/07/20 10:49:27;;;;;;;3.78;0.90;;;20.20;99.90;;;;;;5146838;27;20080;-79
2023/07/20 10:52:03;;;;;;;2.20;0.98;;;20.30;99.90;;;;;;5140725;27;20087;-78
2023/07/20 10:54:28;;;;;;;2.58;1.10;;;20.70;99.90;;;;;;5141983;27;20105;-79
2023/07/20 10:56:56;;;;;;;2.65;1.00;;;20.80;99.90;;;;;;5154684;27;20066;-78
2023/07/20 10:59:38;;;;;;;2.63;0.90;;;20.90;99.90;;;;;;5143093;27;20047;-78
2023/07/20 11:02:08;;;;;;;3.50;1.00;;;20.80;99.90;;;;;;5141525;27;20427;-77
2023/07/20 11:04:41;;;;;;;2.78;1.05;;;20.90;99.90;;;;;;5142272;27;20038;-78
2023/07/20 11:07:07;;;;;;;2.58;0.95;;;20.80;99.90;;;;;;5137411;27;20047;-78
2023/07/20 11:09:37;;;;;;;3.50;0.90;;;20.50;99.90;;;;;;5142046;27;20080;-78
2023/07/20 11:12:17;;;;;;;2.15;1.17;;;20.30;99.90;;;;;;5146737;27;20600;-79
2023/07/20 11:14:53;;;;;;;3.28;1.00;;;20.10;99.90;;;;;;5140830;27;20185;-82
2023/07/20 11:17:22;;;;;;;1.88;1.02;;;20.00;99.90;;;;;;5137327;27;20509;-78
2023/07/20 11:19:49;;;;;;;1.98;0.93;;;20.00;99.90;;;;;;5140488;27;20071;-77
2023/07/20 11:22:17;;;;;;;3.22;1.10;;;19.90;99.90;;;;;;5159630;27;20179;-77
2023/07/20 11:24:43;;;;;;;3.08;1.17;;;20.20;99.90;;;;;;5138067;27;20039;-78
2023/07/20 11:27:09;;;;;;;2.05;1.10;;;20.80;99.90;;;;;;5121908;27;20393;-77
2023/07/20 11:29:37;;;;;;;2.80;1.08;;;21.10;99.90;;;;;;5148089;27;20043;-78
2023/07/20 11:32:04;;;;;;;2.88;0.90;;;21.10;99.90;;;;;;5141776;27;20084;-78
2023/07/20 11:34:31;;;;;;;2.10;0.93;;;21.20;99.90;;;;;;5141225;27;20035;-77
2023/07/20 11:36:57;;;;;;;3.83;0.98;;;21.10;99.90;;;;;;5138406;27;20050;-78
2023/07/20 11:39:25;;;;;;;2.90;1.00;;;20.80;99.90;;;;;;5139018;27;20634;-77
2023/07/20 11:41:53;;;;;;;2.80;1.10;;;21.00;99.90;;;;;;5146945;27;20031;-77
2023/07/20 11:44:26;;;;;;;2.15;0.90;;;21.20;99.90;;;;;;5142510;27;20039;-78
2023/07/20 11:47:05;;;;;;;;;;;21.50;99.90;;;;;;5140985;27;20088;-78
2023/07/20 11:49:35;;;;;;;2.10;0.88;;;21.80;99.90;;;;;;5139642;27;19919;-76
2023/07/20 11:52:01;;;;;;;2.85;1.00;;;21.50;99.90;;;;;;5146525;27;20506;-77
2023/07/20 11:54:27;;;;;;;2.45;0.85;;;21.10;99.90;;;;;;5140706;27;20048;-76
2023/07/20 11:56:56;;;;;;;2.88;0.80;;;20.80;99.90;;;;;;5142296;27;20030;-77
2023/07/20 11:59:22;;;;;;;2.78;1.00;;;20.60;99.90;;;;;;5143885;27;20072;-77
2023/07/20 12:01:47;;;;;;;2.17;1.08;;;20.50;99.90;;;;;;5143139;27;20439;-77
2023/07/20 12:04:13;;;;;;;3.58;1.20;;;20.30;99.90;;;;;;5134393;27;20034;-77
2023/07/20 12:06:39;;;;;;;2.50;1.00;;;20.30;99.90;;;;;;5138552;27;20061;-76
2023/07/20 12:09:04;;;;;;;3.33;1.00;;;20.20;99.90;;;;;;5142479;27;20515;-77
2023/07/20 12:11:38;;;;;;;1.75;0.80;;;20.30;99.90;;;;;;5146744;27;20050;-77
2023/07/20 12:14:07;;;;;;;2.45;0.90;;;20.50;99.90;;;;;;5141743;27;20084;-76
2023/07/20 12:16:32;;;;;;;3.45;1.02;;;20.50;99.90;;;;;;5144908;27;20446;-76
2023/07/20 12:19:06;;;;;;;3.70;1.45;;;20.60;99.90;;;;;;5141511;27;20069;-77
2023/07/20 12:21:34;;;;;;;4.22;1.15;;;20.80;99.90;;;;;;5140389;27;20397;-77
2023/07/20 12:23:59;;;;;;;4.20;1.02;;;20.80;99.90;;;;;;5136589;27;20039;-77
2023/07/20 12:26:26;;;;;;;3.63;1.10;;;21.00;99.90;;;;;;5142752;27;20096;-78
2023/07/20 12:28:52;;;;;;;3.10;0.90;;;21.30;99.90;;;;;;5135137;27;20062;-78
2023/07/20 12:31:18;;;;;;;1.58;0.88;;;21.50;99.90;;;;;;5138646;27;20054;-77
2023/07/20 12:33:44;;;;;;;2.42;0.95;;;21.70;99.90;;;;;;5148143;27;20030;-77
2023/07/20 12:36:10;;;;;;;1.98;0.82;;;21.20;99.90;;;;;;5138203;27;20398;-77
2023/07/20 12:38:36;;;;;;;2.47;0.95;;;20.30;99.90;;;;;;5143557;27;20050;-77
2023/07/20 12:41:02;;;;;;;2.90;0.95;;;19.80;99.90;;;;;;5140499;27;20406;-76
2023/07/20 12:43:27;;;;;;;3.35;1.25;;;19.20;99.90;;;;;;5140744;27;20027;-76
2023/07/20 12:45:53;;;;;;;3.38;1.83;;;18.50;99.90;;;;;;5141680;27;20099;-77
2023/07/20 12:48:19;;;;;;;3.13;1.17;;;18.00;99.90;;;;;;5136704;27;20050;-77